createdAt,value
2023-01-11T00:03:01.990Z,-0.25
2023-01-11T00:08:06.468Z,-0.68
2023-01-11T00:13:09.919Z,-1.30
2023-01-11T00:18:13.465Z,-0.28
2023-01-11T00:23:16.912Z,-1.54
2023-01-11T00:28:20.291Z,-1.27
2023-01-11T00:33:23.899Z,-1.14
2023-01-11T00:38:45.259Z,-0.62
2023-01-11T00:44:07.497Z,-0.40
2023-01-11T00:49:11.211Z,-0.22
2023-01-11T00:54:15.621Z,-0.16
2023-01-11T00:59:19.100Z,-0.74
2023-01-11T01:04:22.602Z,0.43
2023-01-11T01:09:26.171Z,0.53
2023-01-11T01:14:30.747Z,-0.41
2023-01-11T01:19:36.629Z,0.14
2023-01-11T01:24:40.143Z,-0.74
2023-01-11T01:29:43.927Z,-0.31
2023-01-11T01:34:47.459Z,0.07
2023-01-11T01:39:51.114Z,0.12
2023-01-11T01:45:04.278Z,-0.41
2023-01-11T01:50:14.007Z,-0.92
2023-01-11T01:55:26.290Z,0.20
2023-01-11T02:00:30.739Z,0.21
2023-01-11T02:05:34.284Z,-0.01
2023-01-11T02:10:38.826Z,0.35
2023-01-11T02:15:42.542Z,-0.14
2023-01-11T02:21:07.489Z,0.23
2023-01-11T02:26:26.105Z,0.10
2023-01-11T02:31:32.371Z,0.01
2023-01-11T02:37:00.719Z,-0.10
2023-01-11T02:42:38.082Z,-0.58
2023-01-11T02:47:58.178Z,-0.27
2023-01-11T02:53:11.733Z,-0.09
2023-01-11T02:58:18.116Z,-0.06
2023-01-11T03:03:25.902Z,-0.77
2023-01-11T03:08:55.707Z,-0.19
2023-01-11T03:14:23.975Z,-0.23
2023-01-11T03:19:54.326Z,-0.64
2023-01-11T03:25:21.528Z,-0.25
2023-01-11T03:30:46.479Z,-0.52
2023-01-11T03:36:16.006Z,-0.62
2023-01-11T03:41:24.857Z,-0.72
2023-01-11T03:46:32.043Z,-2.09
2023-01-11T03:51:42.290Z,-0.53
2023-01-11T03:56:57.645Z,-1.47
2023-01-11T04:02:01.715Z,-1.59
2023-01-11T04:07:05.190Z,-1.26
2023-01-11T04:12:08.596Z,-1.47
2023-01-11T04:17:12.426Z,-1.36
2023-01-11T04:22:16.243Z,-1.35
2023-01-11T04:27:19.690Z,-1.76
2023-01-11T04:32:22.994Z,-1.17
2023-01-11T04:37:26.358Z,-1.38
2023-01-11T04:42:33.569Z,-2.34
2023-01-11T04:47:37.105Z,-2.71
2023-01-11T04:52:42.306Z,-1.74
2023-01-11T04:57:55.808Z,-0.77
2023-01-11T05:03:10.318Z,-2.14
2023-01-11T05:08:24.825Z,-2.15
2023-01-11T05:13:44.316Z,-0.73
2023-01-11T05:18:49.876Z,-0.52
2023-01-11T05:23:55.514Z,-0.34
2023-01-11T05:29:01.989Z,-0.56
2023-01-11T05:34:07.966Z,-0.55
2023-01-11T05:39:14.091Z,-0.38
2023-01-11T05:44:45.876Z,-0.57
2023-01-11T05:49:49.395Z,-1.15
2023-01-11T05:54:52.720Z,-1.65
2023-01-11T05:59:56.191Z,-0.30
2023-01-11T06:04:59.529Z,-0.62
2023-01-11T06:10:12.111Z,-0.59
2023-01-11T06:15:15.421Z,-0.01
2023-01-11T06:20:19.016Z,-0.17
2023-01-11T06:25:22.259Z,-0.68
2023-01-11T06:30:28.582Z,-0.01
2023-01-11T06:35:42.109Z,-0.43
2023-01-11T06:40:53.711Z,-0.19
2023-01-11T06:45:58.161Z,-0.06
2023-01-11T06:51:01.837Z,-0.19
2023-01-11T06:56:05.564Z,-1.24
2023-01-11T07:01:09.220Z,-0.09
2023-01-11T07:06:12.881Z,-0.09
2023-01-11T07:11:16.264Z,-0.67
2023-01-11T07:16:19.788Z,0.34
2023-01-11T07:21:32.461Z,-0.27
2023-01-11T07:26:41.990Z,0.47
2023-01-11T07:31:47.254Z,0.34
2023-01-11T07:36:50.753Z,0.69
2023-01-11T07:42:15.242Z,0.18
2023-01-11T07:47:18.683Z,0.87
2023-01-11T07:52:22.311Z,0.85
2023-01-11T07:57:25.865Z,-0.46
2023-01-11T08:02:29.345Z,0.62
2023-01-11T08:07:32.727Z,1.61
2023-01-11T08:12:55.183Z,1.81
2023-01-11T08:17:58.536Z,2.02
2023-01-11T08:23:11.852Z,1.80
2023-01-11T08:28:15.252Z,1.28
2023-01-11T08:33:18.960Z,2.28
2023-01-11T08:38:22.207Z,2.02
2023-01-11T08:43:25.986Z,2.20
2023-01-11T08:48:29.345Z,3.08
2023-01-11T08:53:41.353Z,2.27
2023-01-11T08:58:54.632Z,3.00
2023-01-11T09:04:19.388Z,3.49
2023-01-11T09:09:37.005Z,2.82
2023-01-11T09:14:47.450Z,3.96
2023-01-11T09:19:51.020Z,4.06
2023-01-11T09:24:54.233Z,5.04
2023-01-11T09:30:08.047Z,5.18
2023-01-11T09:35:11.615Z,4.18
2023-01-11T09:40:21.437Z,5.60
2023-01-11T09:45:29.223Z,5.54
2023-01-11T09:50:40.696Z,6.24
2023-01-11T09:55:47.940Z,6.66
2023-01-11T10:00:51.209Z,7.13
2023-01-11T10:06:06.980Z,6.73
2023-01-11T10:18:34.381Z,7.78
2023-01-11T10:22:20.658Z,8.04
2023-01-11T10:27:42.107Z,8.23
2023-01-11T10:32:48.897Z,7.62
2023-01-11T10:38:17.864Z,7.94
2023-01-11T10:43:32.300Z,8.03
2023-01-11T10:48:47.251Z,8.56
2023-01-11T10:53:54.537Z,8.71
2023-01-11T10:59:35.889Z,8.48
2023-01-11T11:04:57.414Z,8.37
2023-01-11T11:10:03.532Z,9.04
2023-01-11T11:15:22.594Z,9.48
2023-01-11T11:20:30.949Z,9.46
2023-01-11T11:25:38.784Z,9.69
2023-01-11T11:30:47.754Z,9.44
2023-01-11T11:36:05.974Z,9.43
2023-01-11T11:41:20.556Z,9.60
2023-01-11T11:46:27.867Z,9.60
2023-01-11T11:51:31.728Z,9.51
2023-01-11T11:56:38.615Z,9.21
2023-01-11T12:01:47.538Z,9.49
2023-01-11T12:07:13.294Z,8.95
2023-01-11T12:12:28.584Z,8.20
2023-01-11T12:17:32.998Z,9.23
2023-01-11T12:22:36.238Z,8.86
2023-01-11T12:27:45.545Z,9.39
2023-01-11T12:33:11.931Z,9.36
2023-01-11T12:38:37.126Z,9.52
2023-01-11T12:44:13.054Z,9.50
2023-01-11T12:49:37.736Z,9.53
2023-01-11T12:55:09.090Z,9.54
2023-01-11T13:00:32.167Z,9.24
2023-01-11T13:05:55.627Z,8.98
2023-01-11T13:11:11.858Z,9.30
2023-01-11T13:16:32.167Z,9.30
2023-01-11T13:21:45.363Z,9.11
2023-01-11T13:26:50.928Z,9.02
2023-01-11T13:31:58.527Z,8.17
2023-01-11T13:37:31.092Z,8.92
2023-01-11T13:42:49.024Z,8.82
2023-01-11T13:48:17.400Z,9.09
2023-01-11T13:53:37.255Z,9.03
2023-01-11T13:58:56.774Z,9.08
2023-01-11T14:04:19.738Z,9.16
2023-01-11T14:09:32.420Z,9.16
2023-01-11T14:14:43.045Z,8.50
2023-01-11T14:19:59.994Z,8.96
2023-01-11T14:25:16.029Z,8.86
2023-01-11T14:30:32.021Z,8.72
2023-01-11T14:35:57.603Z,8.53
2023-01-11T14:41:12.933Z,8.39
2023-01-11T14:46:56.307Z,8.17
2023-01-11T14:52:04.079Z,7.61
2023-01-11T14:57:07.471Z,6.60
2023-01-11T15:02:10.968Z,7.65
2023-01-11T15:07:31.283Z,6.98
2023-01-11T15:12:37.111Z,6.64
2023-01-11T15:18:00.675Z,6.18
2023-01-11T15:23:17.789Z,5.54
2023-01-11T15:28:40.760Z,5.59
2023-01-11T15:33:49.732Z,5.18
2023-01-11T15:39:10.366Z,4.29
2023-01-11T15:45:01.527Z,4.48
2023-01-11T15:50:46.722Z,4.52
2023-01-11T15:55:56.190Z,4.02
2023-01-11T16:01:23.153Z,3.61
2023-01-11T16:06:32.885Z,1.31
2023-01-11T16:11:45.204Z,3.23
2023-01-11T16:16:52.745Z,3.23
2023-01-11T16:21:59.977Z,3.36
2023-01-11T16:27:04.874Z,1.98
2023-01-11T16:32:23.738Z,3.27
2023-01-11T16:37:38.762Z,3.08
2023-01-11T16:42:47.763Z,3.00
2023-01-11T16:48:04.998Z,2.80
2023-01-11T16:53:13.589Z,2.66
2023-01-11T16:58:29.725Z,2.54
2023-01-11T17:03:35.545Z,1.96
2023-01-11T17:08:54.129Z,2.32
2023-01-11T17:14:34.904Z,2.20
2023-01-11T17:19:45.182Z,2.13
2023-01-11T17:24:59.689Z,1.83
2023-01-11T17:30:05.826Z,1.53
2023-01-11T17:35:21.208Z,1.93
2023-01-11T17:40:31.036Z,1.53
2023-01-11T17:45:35.344Z,1.31
2023-01-11T17:50:55.419Z,1.72
2023-01-11T17:56:04.101Z,1.11
2023-01-11T18:01:16.471Z,1.36
2023-01-11T18:06:43.026Z,1.50
2023-01-11T18:11:47.341Z,0.93
2023-01-11T18:16:56.603Z,1.33
2023-01-11T18:22:00.618Z,-0.23
2023-01-11T18:27:19.166Z,0.92
2023-01-11T18:32:22.950Z,0.99
2023-01-11T18:37:26.437Z,0.66
2023-01-11T18:42:37.223Z,0.85
2023-01-11T18:47:40.756Z,0.80
2023-01-11T18:52:44.238Z,1.41
2023-01-11T18:57:48.269Z,0.94
2023-01-11T19:08:00.200Z,0.02
2023-01-11T19:13:03.594Z,0.99
2023-01-11T19:18:17.250Z,0.99
2023-01-11T19:23:20.597Z,0.93
2023-01-11T19:28:24.043Z,0.90
2023-01-11T19:33:27.302Z,-0.30
2023-01-11T19:38:40.647Z,1.11
2023-01-11T19:43:46.776Z,1.46
2023-01-11T19:49:00.008Z,0.76
2023-01-11T19:54:15.593Z,0.93
2023-01-11T19:59:20.003Z,0.45
2023-01-11T20:04:24.869Z,0.45
2023-01-11T20:09:29.183Z,-0.09
2023-01-11T20:14:34.903Z,0.88
2023-01-11T20:19:38.669Z,0.98
2023-01-11T20:24:42.636Z,0.91
2023-01-11T20:29:46.641Z,1.11
2023-01-11T20:34:50.151Z,0.28
2023-01-11T20:40:03.727Z,-0.26
2023-01-11T20:45:07.600Z,-0.28
2023-01-11T20:50:11.058Z,0.61
2023-01-11T20:55:14.366Z,-0.66
2023-01-11T21:00:19.041Z,0.86
2023-01-11T21:05:22.349Z,0.96
2023-01-11T21:10:25.864Z,0.68
2023-01-11T21:15:33.742Z,1.47
2023-01-11T21:20:37.192Z,0.80
2023-01-11T21:25:40.470Z,-0.27
2023-01-11T21:30:43.757Z,0.59
2023-01-11T21:35:58.336Z,0.72
2023-01-11T21:41:13.263Z,1.11
2023-01-11T21:46:16.697Z,0.32
2023-01-11T21:51:20.102Z,1.89
2023-01-11T21:56:23.531Z,1.20
2023-01-11T22:01:27.129Z,2.05
2023-01-11T22:06:30.566Z,1.44
2023-01-11T22:11:44.143Z,1.98
2023-01-11T22:16:51.824Z,1.95
2023-01-11T22:21:55.419Z,2.37
2023-01-11T22:26:58.974Z,2.09
2023-01-11T22:32:11.346Z,2.27
2023-01-11T22:37:14.626Z,1.28
2023-01-11T22:42:18.098Z,2.24
2023-01-11T22:47:21.511Z,1.40
2023-01-11T22:52:24.787Z,2.38
2023-01-11T22:57:28.302Z,2.97
2023-01-11T23:02:33.319Z,2.88
2023-01-11T23:07:36.588Z,2.28
2023-01-11T23:12:58.919Z,2.66
2023-01-11T23:18:02.341Z,2.03
2023-01-11T23:23:15.772Z,1.36
2023-01-11T23:28:19.148Z,2.54
2023-01-11T23:33:32.550Z,1.70
2023-01-11T23:38:36.066Z,2.30
2023-01-11T23:43:40.345Z,3.03
2023-01-11T23:48:44.254Z,3.09
2023-01-11T23:53:47.623Z,3.17
2023-01-11T23:58:51.397Z,3.18
